Hawthorne, New Jersey
Current Conditions -  °F | °C
As of 6:51 PM on Sunday 23 Nov 2014 (Local Time) from KTEB Reporting Station
Clear Clear  
Wind Chill: 49°   Ceiling: Unl
Heat Index: 49°   Visibility: 10mi
Dew Point: 28°   Wind: 0mph
Humidity: 44%   Direction: NA
Pressure: 30.12"   Gusts: NA
Location:  40.95°N, 74.15°W
Report Text: KTEB 232351Z 00000KT 10SM CLR 09/M02 A3012 RMK AO2 SLP198 T00941022 10144 20083 58001
Loading
Personal Weather Stations






























Interactive Weather Map New forecast layout! Learn more

10-Day Weather Forecast

Advertisements
Track Severe Weather on mobile